createdAt,value
2023-02-25T00:01:12.707Z,96004.88
2023-02-25T00:03:40.184Z,95996.22
2023-02-25T00:06:09.893Z,96010.50
2023-02-25T00:08:36.651Z,96027.06
2023-02-25T00:11:05.664Z,96028.94
2023-02-25T00:13:33.505Z,96028.41
2023-02-25T00:16:03.331Z,96027.38
2023-02-25T00:18:31.218Z,96025.81
2023-02-25T00:20:58.957Z,96040.50
2023-02-25T00:23:26.361Z,96051.59
2023-02-25T00:26:05.757Z,96065.22
2023-02-25T00:28:33.839Z,96062.28
2023-02-25T00:31:00.496Z,96069.22
2023-02-25T00:33:27.235Z,96072.28
2023-02-25T00:35:54.276Z,96070.47
2023-02-25T00:38:20.941Z,96078.44
2023-02-25T00:40:47.566Z,96084.38
2023-02-25T00:43:14.259Z,96077.13
2023-02-25T00:45:40.867Z,96097.00
2023-02-25T00:48:08.418Z,96102.25
2023-02-25T00:50:36.361Z,96102.06
2023-02-25T00:53:03.052Z,96101.53
2023-02-25T00:55:33.713Z,96099.00
2023-02-25T00:58:01.566Z,96090.56
2023-02-25T01:00:29.193Z,96112.34
2023-02-25T01:02:58.069Z,96119.97
2023-02-25T01:05:25.337Z,96113.69
2023-02-25T01:07:52.804Z,96115.31
2023-02-25T01:10:19.769Z,96117.56
2023-02-25T01:12:46.585Z,96119.97
2023-02-25T01:15:15.237Z,96120.91
2023-02-25T01:17:41.984Z,96117.88
2023-02-25T01:20:12.703Z,96120.44
2023-02-25T01:22:42.017Z,96136.13
2023-02-25T01:25:14.117Z,96146.25
2023-02-25T01:27:40.820Z,96142.59
2023-02-25T01:30:08.926Z,96131.47
2023-02-25T01:32:35.677Z,96142.25
2023-02-25T01:35:03.725Z,96142.25
2023-02-25T01:37:30.474Z,96155.94
2023-02-25T01:39:57.260Z,96158.59
2023-02-25T01:42:24.134Z,96156.69
2023-02-25T01:45:19.252Z,96157.19
2023-02-25T01:47:52.034Z,96152.31
2023-02-25T01:50:25.790Z,96160.59
2023-02-25T01:52:53.264Z,96164.81
2023-02-25T01:55:20.075Z,96155.94
2023-02-25T01:57:47.281Z,96170.41
2023-02-25T02:00:17.395Z,96170.13
2023-02-25T02:02:46.944Z,96175.75
2023-02-25T02:05:14.611Z,96168.31
2023-02-25T02:07:42.367Z,96164.06
2023-02-25T02:10:09.806Z,96179.91
2023-02-25T02:12:39.364Z,96180.69
2023-02-25T02:15:12.847Z,96185.84
2023-02-25T02:17:59.392Z,96178.78
2023-02-25T02:20:30.827Z,96179.47
2023-02-25T02:23:24.588Z,96186.72
2023-02-25T02:26:48.636Z,96196.03
2023-02-25T02:29:35.508Z,96185.94
2023-02-25T02:32:22.474Z,96192.75
2023-02-25T02:34:50.645Z,96183.44
2023-02-25T02:37:27.166Z,96197.28
2023-02-25T02:40:14.588Z,96202.00
2023-02-25T02:43:06.843Z,96204.09
2023-02-25T02:46:02.817Z,96203.75
2023-02-25T02:48:44.772Z,96199.28
2023-02-25T02:51:22.669Z,96193.81
2023-02-25T02:53:55.365Z,96193.66
2023-02-25T02:56:25.177Z,96195.31
2023-02-25T02:59:01.431Z,96195.56
2023-02-25T03:01:32.490Z,96214.03
2023-02-25T03:04:03.534Z,96219.50
2023-02-25T03:06:35.262Z,96225.13
2023-02-25T03:09:14.788Z,96226.94
2023-02-25T03:11:41.858Z,96233.31
2023-02-25T03:14:08.809Z,96226.19
2023-02-25T03:16:40.414Z,96235.53
2023-02-25T03:19:20.679Z,96227.88
2023-02-25T03:22:04.700Z,96227.81
2023-02-25T03:24:35.301Z,96220.75
2023-02-25T03:27:22.453Z,96209.06
2023-02-25T03:29:51.315Z,96218.28
2023-02-25T03:32:19.689Z,96195.63
2023-02-25T03:34:50.641Z,96207.06
2023-02-25T03:37:28.704Z,96215.63
2023-02-25T03:39:59.706Z,96209.53
2023-02-25T03:42:33.825Z,96218.47
2023-02-25T03:45:04.238Z,96227.31
2023-02-25T03:47:34.494Z,96218.06
2023-02-25T03:50:09.318Z,96228.47
2023-02-25T03:52:39.862Z,96228.66
2023-02-25T03:55:15.094Z,96229.66
2023-02-25T03:57:43.561Z,96235.28
2023-02-25T04:00:19.308Z,96224.75
2023-02-25T04:02:47.393Z,96231.22
2023-02-25T04:05:15.712Z,96234.34
2023-02-25T04:07:42.971Z,96244.31
2023-02-25T04:10:12.803Z,96246.22
2023-02-25T04:12:39.652Z,96253.53
2023-02-25T04:15:07.435Z,96249.19
2023-02-25T04:17:34.987Z,96246.69
2023-02-25T04:20:01.741Z,96249.44
2023-02-25T04:22:28.353Z,96242.59
2023-02-25T04:24:55.089Z,96241.34
2023-02-25T04:27:21.967Z,96230.88
2023-02-25T04:29:48.561Z,96216.94
2023-02-25T04:32:15.570Z,96207.53
2023-02-25T04:34:42.220Z,96195.34
2023-02-25T04:37:10.152Z,96168.91
2023-02-25T04:39:37.202Z,96170.34
2023-02-25T04:42:04.153Z,96166.44
2023-02-25T04:44:31.130Z,96175.28
2023-02-25T04:46:57.862Z,96190.31
2023-02-25T04:49:25.088Z,96191.38
2023-02-25T04:51:52.082Z,96182.22
2023-02-25T04:54:21.977Z,96187.47
2023-02-25T04:56:49.037Z,96186.78
2023-02-25T04:59:16.485Z,96197.25
2023-02-25T05:01:43.441Z,96199.53
2023-02-25T05:04:10.292Z,96208.09
2023-02-25T05:06:36.948Z,96201.06
2023-02-25T05:09:04.083Z,96201.16
2023-02-25T05:11:30.813Z,96198.09
2023-02-25T05:13:57.564Z,96192.59
2023-02-25T05:16:25.843Z,96191.19
2023-02-25T05:18:52.842Z,96188.13
2023-02-25T05:21:22.470Z,96191.81
2023-02-25T05:23:51.276Z,96188.50
2023-02-25T05:26:23.476Z,96199.53
2023-02-25T05:28:55.623Z,96202.28
2023-02-25T05:31:23.697Z,96210.16
2023-02-25T05:33:51.008Z,96199.97
2023-02-25T05:36:18.060Z,96196.66
2023-02-25T05:38:45.486Z,96184.31
2023-02-25T05:41:13.045Z,96182.31
2023-02-25T05:43:40.490Z,96180.59
2023-02-25T05:46:11.965Z,96184.00
2023-02-25T05:48:42.935Z,96181.56
2023-02-25T05:51:16.052Z,96171.84
2023-02-25T05:53:44.818Z,96177.66
2023-02-25T05:56:13.550Z,96175.66
2023-02-25T05:58:40.379Z,96175.66
2023-02-25T06:01:13.299Z,96172.72
2023-02-25T06:03:41.421Z,96166.03
2023-02-25T06:06:08.887Z,96177.19
2023-02-25T06:08:35.551Z,96176.88
2023-02-25T06:11:02.355Z,96178.13
2023-02-25T06:13:29.057Z,96180.41
2023-02-25T06:15:55.730Z,96176.97
2023-02-25T06:18:22.422Z,96184.75
2023-02-25T06:20:49.111Z,96187.47
2023-02-25T06:23:16.094Z,96186.78
2023-02-25T06:25:42.725Z,96194.78
2023-02-25T06:28:09.691Z,96184.50
2023-02-25T06:30:36.403Z,96190.94
2023-02-25T06:33:03.037Z,96202.56
2023-02-25T06:35:30.585Z,96200.75
2023-02-25T06:37:59.501Z,96184.88
2023-02-25T06:40:28.782Z,96189.63
2023-02-25T06:42:55.406Z,96199.97
2023-02-25T06:45:22.067Z,96196.53
2023-02-25T06:47:48.726Z,96195.75
2023-02-25T06:50:15.957Z,96195.03
2023-02-25T06:52:44.074Z,96198.28
2023-02-25T06:55:10.829Z,96198.84
2023-02-25T06:57:37.432Z,96190.56
2023-02-25T07:00:05.737Z,96180.56
2023-02-25T07:02:32.938Z,96184.94
2023-02-25T07:05:01.370Z,96190.28
2023-02-25T07:07:27.984Z,96186.69
2023-02-25T07:09:56.078Z,96195.44
2023-02-25T07:12:23.371Z,96206.84
2023-02-25T07:14:50.251Z,96215.13
2023-02-25T07:17:16.972Z,96226.56
2023-02-25T07:19:43.613Z,96220.44
2023-02-25T07:22:16.097Z,96217.19
2023-02-25T07:24:43.481Z,96211.22
2023-02-25T07:27:13.100Z,96212.19
2023-02-25T07:29:40.500Z,96209.16
2023-02-25T07:32:09.314Z,96205.72
2023-02-25T07:34:37.649Z,96210.94
2023-02-25T07:37:04.351Z,96224.00
2023-02-25T07:39:30.968Z,96225.88
2023-02-25T07:41:57.786Z,96220.75
2023-02-25T07:44:24.576Z,96231.69
2023-02-25T07:46:51.165Z,96228.91
2023-02-25T07:49:17.877Z,96241.19
2023-02-25T07:51:44.519Z,96229.78
2023-02-25T07:54:11.212Z,96239.47
2023-02-25T07:56:37.851Z,96238.06
2023-02-25T07:59:04.698Z,96245.94
2023-02-25T08:01:34.076Z,96249.00
2023-02-25T08:04:06.265Z,96250.06
2023-02-25T08:06:37.813Z,96250.25
2023-02-25T08:09:08.997Z,96258.44
2023-02-25T08:11:35.766Z,96262.84
2023-02-25T08:14:02.876Z,96266.09
2023-02-25T08:16:29.582Z,96270.53
2023-02-25T08:18:56.260Z,96284.06
2023-02-25T08:21:24.012Z,96301.81
2023-02-25T08:23:52.514Z,96297.84
2023-02-25T08:26:22.606Z,96311.44
2023-02-25T08:28:51.013Z,96310.59
2023-02-25T08:31:21.352Z,96312.22
2023-02-25T08:33:50.083Z,96314.53
2023-02-25T08:36:20.613Z,96316.03
2023-02-25T08:38:47.964Z,96331.38
2023-02-25T08:41:15.058Z,96343.91
2023-02-25T08:43:42.418Z,96364.13
2023-02-25T08:46:10.377Z,96373.47
2023-02-25T08:48:37.606Z,96387.38
2023-02-25T08:51:08.940Z,96392.22
2023-02-25T08:53:39.664Z,96405.78
2023-02-25T08:56:12.095Z,96406.34
2023-02-25T08:58:39.565Z,96408.22
2023-02-25T09:01:09.163Z,96414.06
2023-02-25T09:03:35.908Z,96434.78
2023-02-25T09:06:02.594Z,96443.97
2023-02-25T09:08:29.353Z,96447.47
2023-02-25T09:10:56.081Z,96455.19
2023-02-25T09:13:22.988Z,96455.75
2023-02-25T09:15:57.648Z,96442.44
2023-02-25T09:18:24.704Z,96456.06
2023-02-25T09:20:51.807Z,96453.97
2023-02-25T09:23:18.668Z,96454.00
2023-02-25T09:25:45.764Z,96462.28
2023-02-25T09:28:13.076Z,96482.59
2023-02-25T09:30:40.167Z,96494.03
2023-02-25T09:33:06.885Z,96511.00
2023-02-25T09:35:33.676Z,96514.31
2023-02-25T09:38:00.375Z,96510.63
2023-02-25T09:40:27.307Z,96522.34
2023-02-25T09:43:18.753Z,96527.88
2023-02-25T09:45:47.676Z,96525.66
2023-02-25T09:48:26.094Z,96523.94
2023-02-25T09:50:58.519Z,96541.66
2023-02-25T09:53:39.280Z,96557.72
2023-02-25T09:56:07.583Z,96570.38
2023-02-25T09:58:42.609Z,96579.63
2023-02-25T10:01:39.355Z,96597.97
2023-02-25T10:04:15.205Z,96604.00
2023-02-25T10:06:46.208Z,96606.38
2023-02-25T10:09:23.903Z,96615.03
2023-02-25T10:11:51.191Z,96612.31
2023-02-25T10:14:50.026Z,96648.66
2023-02-25T10:17:31.725Z,96663.66
2023-02-25T10:20:01.045Z,96670.03
2023-02-25T10:22:42.522Z,96665.38
2023-02-25T10:25:16.901Z,96662.78
2023-02-25T10:28:04.947Z,96660.19
2023-02-25T10:30:41.322Z,96667.34
2023-02-25T10:33:16.691Z,96674.78
2023-02-25T10:35:43.902Z,96677.75
2023-02-25T10:38:12.872Z,96677.03
2023-02-25T10:40:41.009Z,96686.72
2023-02-25T10:43:20.405Z,96683.31
2023-02-25T10:45:52.067Z,96685.13
2023-02-25T10:48:24.510Z,96681.22
2023-02-25T10:51:06.503Z,96672.78
2023-02-25T10:53:34.217Z,96672.50
2023-02-25T10:56:01.971Z,96662.28
2023-02-25T10:58:28.555Z,96688.31
2023-02-25T11:00:59.421Z,96679.03
2023-02-25T11:03:29.955Z,96650.00
2023-02-25T11:06:36.381Z,96620.28
2023-02-25T11:09:07.244Z,96605.44
2023-02-25T11:11:38.668Z,96579.69
2023-02-25T11:14:16.388Z,96588.78
2023-02-25T11:16:45.588Z,96593.00
2023-02-25T11:19:35.503Z,96604.81
2023-02-25T11:22:11.791Z,96590.66
2023-02-25T11:24:39.765Z,96588.28
2023-02-25T11:27:08.816Z,96583.97
2023-02-25T11:29:39.125Z,96559.06
2023-02-25T11:32:13.720Z,96542.09
2023-02-25T11:34:53.476Z,96526.00
2023-02-25T11:37:36.652Z,96533.13
2023-02-25T11:40:21.508Z,96543.63
2023-02-25T11:43:00.309Z,96560.50
2023-02-25T11:45:29.937Z,96547.03
2023-02-25T11:47:57.428Z,96565.66
2023-02-25T11:50:32.167Z,96570.88
2023-02-25T11:53:02.094Z,96576.38
2023-02-25T11:55:52.666Z,96584.66
2023-02-25T11:58:43.518Z,96584.78
2023-02-25T12:01:34.366Z,96615.31
2023-02-25T12:04:23.230Z,96621.22
2023-02-25T12:07:41.661Z,96662.78
2023-02-25T12:10:23.418Z,96657.94
2023-02-25T12:13:28.630Z,96677.81
2023-02-25T12:16:11.525Z,96687.50
2023-02-25T12:19:15.761Z,96700.13
2023-02-25T12:22:12.811Z,96710.31
2023-02-25T12:24:43.594Z,96737.19
2023-02-25T12:27:34.181Z,96734.28
2023-02-25T12:30:08.874Z,96718.03
2023-02-25T12:32:46.459Z,96711.34
2023-02-25T12:35:25.026Z,96689.25
2023-02-25T12:38:10.308Z,96688.25
2023-02-25T12:40:58.797Z,96657.22
2023-02-25T12:43:34.509Z,96657.53
2023-02-25T12:46:04.055Z,96641.09
2023-02-25T12:48:53.778Z,96622.00
2023-02-25T12:51:28.444Z,96661.06
2023-02-25T12:54:01.004Z,96646.66
2023-02-25T12:56:36.673Z,96682.56
2023-02-25T12:59:23.897Z,96691.81
2023-02-25T13:02:15.539Z,96705.03
2023-02-25T13:04:54.524Z,96715.44
2023-02-25T13:07:27.002Z,96739.81
2023-02-25T13:10:25.792Z,96725.56
2023-02-25T13:13:05.420Z,96759.50
2023-02-25T13:15:44.163Z,96777.44
2023-02-25T13:18:16.754Z,96781.38
2023-02-25T13:21:12.739Z,96818.25
2023-02-25T13:23:42.107Z,96816.28
2023-02-25T13:26:39.308Z,96840.41
2023-02-25T13:29:33.932Z,96884.00
2023-02-25T13:32:18.778Z,96887.88
2023-02-25T13:35:07.096Z,96905.16
2023-02-25T13:38:11.257Z,96931.59
2023-02-25T13:40:43.716Z,96923.69
2023-02-25T13:43:55.074Z,96947.09
2023-02-25T13:46:45.626Z,96962.63
2023-02-25T13:49:30.929Z,96984.84
2023-02-25T13:52:07.476Z,96980.72
2023-02-25T13:54:40.184Z,96982.97
2023-02-25T13:57:25.382Z,96987.75
2023-02-25T14:00:23.902Z,97003.03
2023-02-25T14:03:02.581Z,97013.47
2023-02-25T14:06:08.538Z,97029.88
2023-02-25T14:09:02.098Z,97037.63
2023-02-25T14:11:38.167Z,97033.78
2023-02-25T14:14:20.708Z,97049.50
2023-02-25T14:17:05.338Z,97082.69
2023-02-25T14:19:46.888Z,97092.75
2023-02-25T14:22:22.481Z,97098.94
2023-02-25T14:25:34.278Z,97103.53
2023-02-25T14:28:18.007Z,97106.22
2023-02-25T14:31:13.076Z,97124.31
2023-02-25T14:33:55.064Z,97146.22
2023-02-25T14:36:34.166Z,97150.06
2023-02-25T14:39:12.163Z,97148.66
2023-02-25T14:42:02.617Z,97134.16
2023-02-25T14:44:50.768Z,97152.16
2023-02-25T14:47:28.397Z,97140.19
2023-02-25T14:50:05.549Z,97156.63
2023-02-25T14:52:47.055Z,97154.72
2023-02-25T14:55:26.651Z,97164.53
2023-02-25T14:58:23.314Z,97168.88
2023-02-25T15:01:11.118Z,97164.66
2023-02-25T15:03:56.018Z,97162.31
2023-02-25T15:06:31.635Z,97155.41
2023-02-25T15:09:31.604Z,97163.03
2023-02-25T15:12:21.980Z,97187.28
2023-02-25T15:15:09.024Z,97184.97
2023-02-25T15:17:55.937Z,97176.97
2023-02-25T15:20:26.922Z,97208.91
2023-02-25T15:23:16.060Z,97186.13
2023-02-25T15:25:45.781Z,97209.34
2023-02-25T15:28:30.907Z,97230.38
2023-02-25T15:31:01.522Z,97234.50
2023-02-25T15:33:41.363Z,97241.13
2023-02-25T15:36:13.889Z,97250.88
2023-02-25T15:38:40.648Z,97253.63
2023-02-25T15:41:29.164Z,97262.97
2023-02-25T15:43:55.723Z,97273.28
2023-02-25T15:46:35.116Z,97265.63
2023-02-25T15:49:17.330Z,97277.44
2023-02-25T15:51:48.034Z,97273.81
2023-02-25T15:54:40.837Z,97280.25
2023-02-25T15:57:10.607Z,97282.25
2023-02-25T15:59:43.086Z,97300.31
2023-02-25T16:02:33.388Z,97303.41
2023-02-25T16:05:24.309Z,97299.47
2023-02-25T16:08:14.238Z,97291.22
2023-02-25T16:10:45.404Z,97299.03
2023-02-25T16:13:16.407Z,97303.19
2023-02-25T16:15:49.646Z,97315.53
2023-02-25T16:18:19.399Z,97327.16
2023-02-25T16:20:50.452Z,97327.69
2023-02-25T16:23:18.268Z,97328.56
2023-02-25T16:26:17.271Z,97326.69
2023-02-25T16:28:52.655Z,97330.88
2023-02-25T16:31:44.240Z,97345.03
2023-02-25T16:34:19.176Z,97349.97
2023-02-25T16:37:06.718Z,97347.63
2023-02-25T16:39:33.772Z,97349.97
2023-02-25T16:42:12.160Z,97368.47
2023-02-25T16:44:40.969Z,97363.63
2023-02-25T16:47:27.135Z,97373.88
2023-02-25T16:49:55.548Z,97382.88
2023-02-25T16:52:30.711Z,97386.50
2023-02-25T16:55:00.247Z,97395.22
2023-02-25T16:57:27.845Z,97391.84
2023-02-25T17:00:17.594Z,97399.28
2023-02-25T17:03:01.052Z,97406.19
2023-02-25T17:05:33.877Z,97407.16
2023-02-25T17:08:02.812Z,97413.41
2023-02-25T17:10:54.288Z,97415.13
2023-02-25T17:13:27.534Z,97406.34
2023-02-25T17:15:54.493Z,97409.06
2023-02-25T17:18:31.360Z,97421.25
2023-02-25T17:21:29.581Z,97441.94
2023-02-25T17:23:58.793Z,97440.13
2023-02-25T17:26:25.872Z,97466.81
2023-02-25T17:28:55.760Z,97452.59
2023-02-25T17:31:27.152Z,97456.84
2023-02-25T17:33:55.725Z,97466.63
2023-02-25T17:36:28.601Z,97457.63
2023-02-25T17:39:01.385Z,97470.66
2023-02-25T17:41:28.819Z,97473.72
2023-02-25T17:43:55.613Z,97477.84
2023-02-25T17:46:31.246Z,97485.34
2023-02-25T17:49:04.208Z,97488.03
2023-02-25T17:51:37.222Z,97493.44
2023-02-25T17:54:19.908Z,97498.72
2023-02-25T17:56:54.653Z,97492.94
2023-02-25T17:59:41.111Z,97499.41
2023-02-25T18:02:22.815Z,97490.53
2023-02-25T18:04:53.065Z,97499.63
2023-02-25T18:07:22.572Z,97507.66
2023-02-25T18:09:49.899Z,97511.75
2023-02-25T18:12:29.303Z,97507.53
2023-02-25T18:15:00.438Z,97523.16
2023-02-25T18:17:28.835Z,97514.81
2023-02-25T18:19:59.259Z,97509.31
2023-02-25T18:22:32.165Z,97519.50
2023-02-25T18:25:02.529Z,97514.97
2023-02-25T18:27:33.941Z,97510.56
2023-02-25T18:30:28.071Z,97526.91
2023-02-25T18:32:55.161Z,97521.78
2023-02-25T18:35:22.216Z,97523.44
2023-02-25T18:37:50.827Z,97528.84
2023-02-25T18:40:30.618Z,97526.53
2023-02-25T18:42:58.879Z,97525.13
2023-02-25T18:45:27.655Z,97526.09
2023-02-25T18:47:56.971Z,97536.25
2023-02-25T18:50:24.710Z,97535.06
2023-02-25T18:52:51.529Z,97536.94
2023-02-25T18:55:24.714Z,97537.56
2023-02-25T18:57:51.795Z,97540.75
2023-02-25T19:00:20.829Z,97555.44
2023-02-25T19:02:54.224Z,97541.41
2023-02-25T19:05:23.314Z,97543.97
2023-02-25T19:07:50.416Z,97541.41
2023-02-25T19:10:25.994Z,97529.94
2023-02-25T19:13:01.229Z,97525.47
2023-02-25T19:15:27.912Z,97522.06
2023-02-25T19:17:54.613Z,97538.00
2023-02-25T19:20:21.921Z,97547.19
2023-02-25T19:22:50.746Z,97537.06
2023-02-25T19:25:23.893Z,97537.69
2023-02-25T19:27:51.751Z,97535.81
2023-02-25T19:30:21.882Z,97563.13
2023-02-25T19:32:48.837Z,97547.63
2023-02-25T19:35:15.598Z,97543.97
2023-02-25T19:37:43.667Z,97541.66
2023-02-25T19:40:13.937Z,97561.91
2023-02-25T19:42:42.158Z,97560.19
2023-02-25T19:45:13.122Z,97566.78
2023-02-25T19:47:40.545Z,97560.28
2023-02-25T19:50:08.035Z,97562.53
2023-02-25T19:52:34.690Z,97568.41
2023-02-25T19:55:01.358Z,97581.69
2023-02-25T19:57:28.034Z,97574.84
2023-02-25T19:59:54.650Z,97572.69
2023-02-25T20:02:21.276Z,97569.91
2023-02-25T20:04:48.228Z,97562.16
2023-02-25T20:07:15.747Z,97562.00
2023-02-25T20:09:42.830Z,97559.91
2023-02-25T20:12:10.086Z,97570.84
2023-02-25T20:14:37.254Z,97568.59
2023-02-25T20:17:05.161Z,97565.16
2023-02-25T20:19:33.031Z,97552.69
2023-02-25T20:22:01.535Z,97549.66
2023-02-25T20:24:29.122Z,97560.94
2023-02-25T20:26:56.085Z,97554.75
2023-02-25T20:29:23.176Z,97546.31
2023-02-25T20:31:49.930Z,97560.63
2023-02-25T20:34:19.684Z,97552.28
2023-02-25T20:36:55.425Z,97553.88
2023-02-25T20:39:37.355Z,97564.22
2023-02-25T20:42:12.484Z,97563.88
2023-02-25T20:44:39.778Z,97579.00
2023-02-25T20:47:07.134Z,97581.84
2023-02-25T20:49:33.912Z,97592.69
2023-02-25T20:52:00.820Z,97580.47
2023-02-25T20:54:27.530Z,97579.50
2023-02-25T20:56:54.585Z,97583.03
2023-02-25T20:59:21.440Z,97572.59
2023-02-25T21:01:48.122Z,97583.03
2023-02-25T21:04:15.341Z,97572.44
2023-02-25T21:06:42.133Z,97581.03
2023-02-25T21:09:08.733Z,97573.06
2023-02-25T21:11:35.538Z,97575.81
2023-02-25T21:14:02.249Z,97570.81
2023-02-25T21:16:28.974Z,97587.84
2023-02-25T21:18:58.225Z,97582.16
2023-02-25T21:21:26.840Z,97592.31
2023-02-25T21:23:53.619Z,97580.41
2023-02-25T21:26:20.394Z,97580.41
2023-02-25T21:28:47.119Z,97585.28
2023-02-25T21:31:15.785Z,97591.59
2023-02-25T21:33:43.002Z,97586.38
2023-02-25T21:36:10.616Z,97576.59
2023-02-25T21:38:38.371Z,97578.06
2023-02-25T21:41:13.788Z,97588.38
2023-02-25T21:43:41.858Z,97589.47
2023-02-25T21:46:11.797Z,97589.28
2023-02-25T21:48:40.311Z,97587.50
2023-02-25T21:51:07.472Z,97571.88
2023-02-25T21:53:34.107Z,97575.28
2023-02-25T21:56:12.864Z,97564.97
2023-02-25T21:58:39.825Z,97564.63
2023-02-25T22:01:18.885Z,97562.88
2023-02-25T22:03:46.366Z,97561.44
2023-02-25T22:06:13.702Z,97567.66
2023-02-25T22:08:41.915Z,97556.47
2023-02-25T22:11:19.997Z,97564.91
2023-02-25T22:13:46.907Z,97555.59
2023-02-25T22:16:15.326Z,97561.59
2023-02-25T22:18:42.451Z,97552.03
2023-02-25T22:21:12.148Z,97545.81
2023-02-25T22:23:39.980Z,97551.03
2023-02-25T22:26:09.426Z,97549.63
2023-02-25T22:28:36.791Z,97551.75
2023-02-25T22:31:05.094Z,97542.88
2023-02-25T22:33:32.885Z,97533.78
2023-02-25T22:36:02.100Z,97535.88
2023-02-25T22:38:30.825Z,97533.31
2023-02-25T22:40:57.532Z,97525.00
2023-02-25T22:43:24.781Z,97537.09
2023-02-25T22:45:51.723Z,97535.88
2023-02-25T22:48:18.583Z,97525.88
2023-02-25T22:50:49.347Z,97537.09
2023-02-25T22:53:17.227Z,97539.53
2023-02-25T22:55:44.448Z,97533.19
2023-02-25T22:58:11.127Z,97534.41
2023-02-25T23:00:43.497Z,97534.19
2023-02-25T23:03:10.631Z,97533.00
2023-02-25T23:05:37.468Z,97534.44
2023-02-25T23:08:04.487Z,97546.16
2023-02-25T23:10:31.176Z,97536.81
2023-02-25T23:13:02.093Z,97524.94
2023-02-25T23:15:28.926Z,97529.50
2023-02-25T23:17:56.167Z,97516.31
2023-02-25T23:20:24.048Z,97521.41
2023-02-25T23:22:52.989Z,97515.09
2023-02-25T23:25:20.111Z,97516.97
2023-02-25T23:27:46.839Z,97505.44
2023-02-25T23:30:14.694Z,97506.22
2023-02-25T23:32:42.186Z,97502.34
2023-02-25T23:35:11.327Z,97499.91
2023-02-25T23:37:38.680Z,97509.78
2023-02-25T23:40:11.673Z,97506.13
2023-02-25T23:42:40.244Z,97506.78
2023-02-25T23:45:08.663Z,97497.03
2023-02-25T23:47:36.564Z,97496.47
2023-02-25T23:50:03.523Z,97495.81
2023-02-25T23:52:30.354Z,97501.47
2023-02-25T23:54:56.998Z,97504.91
2023-02-25T23:57:23.850Z,97491.28
2023-02-25T23:59:50.487Z,97494.91
